sensor_id;sensor_type;location;lat;lon;timestamp;temperature;humidity
23124;DHT22;11731;48.592;8.858;2022-08-06T03:35:18;19.30;94.70
23124;DHT22;11731;48.592;8.858;2022-08-06T03:37:47;19.40;94.70
23124;DHT22;11731;48.592;8.858;2022-08-06T03:40:17;19.10;94.70
23124;DHT22;11731;48.592;8.858;2022-08-06T03:42:48;19.30;94.80
23124;DHT22;11731;48.592;8.858;2022-08-06T03:45:15;19.90;94.30
23124;DHT22;11731;48.592;8.858;2022-08-06T03:47:46;19.60;94.50
23124;DHT22;11731;48.592;8.858;2022-08-06T03:53:32;19.30;95.00
23124;DHT22;11731;48.592;8.858;2022-08-06T03:56:04;19.20;95.10
23124;DHT22;11731;48.592;8.858;2022-08-06T03:58:32;19.20;95.10
23124;DHT22;11731;48.592;8.858;2022-08-06T04:01:02;19.10;95.50
23124;DHT22;11731;48.592;8.858;2022-08-06T04:03:32;19.10;95.40
23124;DHT22;11731;48.592;8.858;2022-08-06T04:05:59;19.30;95.00
23124;DHT22;11731;48.592;8.858;2022-08-06T04:08:27;19.40;95.00
23124;DHT22;11731;48.592;8.858;2022-08-06T04:10:55;19.00;95.00
23124;DHT22;11731;48.592;8.858;2022-08-06T04:13:24;19.10;95.70
23124;DHT22;11731;48.592;8.858;2022-08-06T04:15:53;18.90;96.10
23124;DHT22;11731;48.592;8.858;2022-08-06T04:18:23;18.40;96.70
23124;DHT22;11731;48.592;8.858;2022-08-06T04:20:54;18.50;96.70
23124;DHT22;11731;48.592;8.858;2022-08-06T04:23:21;18.50;96.70
23124;DHT22;11731;48.592;8.858;2022-08-06T04:25:50;18.90;95.90
23124;DHT22;11731;48.592;8.858;2022-08-06T04:28:21;18.70;96.20
23124;DHT22;11731;48.592;8.858;2022-08-06T04:30:48;18.60;96.40
23124;DHT22;11731;48.592;8.858;2022-08-06T04:33:18;18.50;96.40
23124;DHT22;11731;48.592;8.858;2022-08-06T04:35:46;18.50;96.90
23124;DHT22;11731;48.592;8.858;2022-08-06T04:38:16;18.50;97.00
23124;DHT22;11731;48.592;8.858;2022-08-06T04:40:43;18.60;96.70
23124;DHT22;11731;48.592;8.858;2022-08-06T04:43:11;18.40;96.90
23124;DHT22;11731;48.592;8.858;2022-08-06T04:45:41;18.30;97.20
23124;DHT22;11731;48.592;8.858;2022-08-06T04:48:09;18.20;97.40
23124;DHT22;11731;48.592;8.858;2022-08-06T04:50:37;18.70;96.90
23124;DHT22;11731;48.592;8.858;2022-08-06T04:53:05;18.80;96.60
23124;DHT22;11731;48.592;8.858;2022-08-06T04:55:34;18.70;96.80
23124;DHT22;11731;48.592;8.858;2022-08-06T04:58:02;18.60;96.90
23124;DHT22;11731;48.592;8.858;2022-08-06T05:00:29;18.20;97.40
23124;DHT22;11731;48.592;8.858;2022-08-06T05:02:58;18.40;97.50
23124;DHT22;11731;48.592;8.858;2022-08-06T05:05:25;18.60;97.20
23124;DHT22;11731;48.592;8.858;2022-08-06T05:07:53;18.70;97.30
23124;DHT22;11731;48.592;8.858;2022-08-06T05:10:23;18.60;97.30
23124;DHT22;11731;48.592;8.858;2022-08-06T05:12:53;18.80;96.90
23124;DHT22;11731;48.592;8.858;2022-08-06T05:15:26;18.90;96.80
23124;DHT22;11731;48.592;8.858;2022-08-06T05:18:06;18.90;96.80
23124;DHT22;11731;48.592;8.858;2022-08-06T05:20:37;18.90;96.60
23124;DHT22;11731;48.592;8.858;2022-08-06T05:23:09;19.10;96.60
23124;DHT22;11731;48.592;8.858;2022-08-06T05:28:33;19.40;96.00
23124;DHT22;11731;48.592;8.858;2022-08-06T05:31:01;19.40;95.90
23124;DHT22;11731;48.592;8.858;2022-08-06T05:33:32;19.30;95.90
23124;DHT22;11731;48.592;8.858;2022-08-06T05:36:03;19.40;96.00
23124;DHT22;11731;48.592;8.858;2022-08-06T05:38:31;19.50;96.10
23124;DHT22;11731;48.592;8.858;2022-08-06T05:40:58;19.50;95.90
23124;DHT22;11731;48.592;8.858;2022-08-06T05:43:26;19.10;96.70
23124;DHT22;11731;48.592;8.858;2022-08-06T05:46:01;18.90;96.60
23124;DHT22;11731;48.592;8.858;2022-08-06T05:51:37;18.30;97.60
23124;DHT22;11731;48.592;8.858;2022-08-06T05:54:10;18.70;97.40
23124;DHT22;11731;48.592;8.858;2022-08-06T05:56:44;18.80;97.10
23124;DHT22;11731;48.592;8.858;2022-08-06T05:59:18;18.90;97.00
23124;DHT22;11731;48.592;8.858;2022-08-06T06:01:46;19.20;96.80
23124;DHT22;11731;48.592;8.858;2022-08-06T06:04:16;19.30;96.60
23124;DHT22;11731;48.592;8.858;2022-08-06T06:06:45;19.50;96.60
23124;DHT22;11731;48.592;8.858;2022-08-06T06:09:13;19.60;96.10
23124;DHT22;11731;48.592;8.858;2022-08-06T06:11:41;19.20;96.70
23124;DHT22;11731;48.592;8.858;2022-08-06T06:14:30;19.10;97.20
23124;DHT22;11731;48.592;8.858;2022-08-06T06:17:08;19.00;97.20
23124;DHT22;11731;48.592;8.858;2022-08-06T06:19:43;19.30;97.10
23124;DHT22;11731;48.592;8.858;2022-08-06T06:22:20;19.50;96.40
23124;DHT22;11731;48.592;8.858;2022-08-06T06:28:09;19.70;96.00
23124;DHT22;11731;48.592;8.858;2022-08-06T06:30:44;19.70;96.00
23124;DHT22;11731;48.592;8.858;2022-08-06T06:33:15;19.40;96.50
23124;DHT22;11731;48.592;8.858;2022-08-06T06:35:50;19.40;96.70
23124;DHT22;11731;48.592;8.858;2022-08-06T06:38:25;19.50;96.50
23124;DHT22;11731;48.592;8.858;2022-08-06T06:41:02;19.60;96.60
23124;DHT22;11731;48.592;8.858;2022-08-06T06:43:39;19.40;96.20
23124;DHT22;11731;48.592;8.858;2022-08-06T06:46:17;19.60;96.50
23124;DHT22;11731;48.592;8.858;2022-08-06T06:48:48;19.70;96.40
23124;DHT22;11731;48.592;8.858;2022-08-06T06:51:20;20.20;96.00
23124;DHT22;11731;48.592;8.858;2022-08-06T06:53:53;20.20;95.70
23124;DHT22;11731;48.592;8.858;2022-08-06T06:56:26;20.70;95.00
23124;DHT22;11731;48.592;8.858;2022-08-06T06:59:00;20.80;94.60
23124;DHT22;11731;48.592;8.858;2022-08-06T07:01:29;20.90;94.40
23124;DHT22;11731;48.592;8.858;2022-08-06T07:04:00;20.70;94.30
23124;DHT22;11731;48.592;8.858;2022-08-06T07:06:29;20.70;95.10
23124;DHT22;11731;48.592;8.858;2022-08-06T07:08:59;20.90;94.70
23124;DHT22;11731;48.592;8.858;2022-08-06T07:11:27;21.10;94.30
23124;DHT22;11731;48.592;8.858;2022-08-06T07:13:55;21.30;94.20
23124;DHT22;11731;48.592;8.858;2022-08-06T07:16:25;21.20;94.40
23124;DHT22;11731;48.592;8.858;2022-08-06T07:18:53;20.90;94.40
23124;DHT22;11731;48.592;8.858;2022-08-06T07:21:21;21.20;94.10
23124;DHT22;11731;48.592;8.858;2022-08-06T07:23:50;21.40;94.00
23124;DHT22;11731;48.592;8.858;2022-08-06T07:26:21;21.10;94.00
23124;DHT22;11731;48.592;8.858;2022-08-06T07:28:51;21.10;94.00
23124;DHT22;11731;48.592;8.858;2022-08-06T07:31:19;21.30;93.70
23124;DHT22;11731;48.592;8.858;2022-08-06T07:33:49;21.30;93.50
23124;DHT22;11731;48.592;8.858;2022-08-06T07:36:19;21.20;93.50
23124;DHT22;11731;48.592;8.858;2022-08-06T07:38:48;21.30;93.70
23124;DHT22;11731;48.592;8.858;2022-08-06T07:41:17;21.60;93.40
23124;DHT22;11731;48.592;8.858;2022-08-06T07:43:52;21.70;93.30
23124;DHT22;11731;48.592;8.858;2022-08-06T07:46:22;21.80;93.00
23124;DHT22;11731;48.592;8.858;2022-08-06T07:48:54;21.80;93.40
23124;DHT22;11731;48.592;8.858;2022-08-06T07:51:24;21.90;92.50
23124;DHT22;11731;48.592;8.858;2022-08-06T07:53:53;21.80;92.70
23124;DHT22;11731;48.592;8.858;2022-08-06T07:56:21;21.80;92.40
23124;DHT22;11731;48.592;8.858;2022-08-06T07:58:50;21.80;92.60
23124;DHT22;11731;48.592;8.858;2022-08-06T08:01:18;21.80;92.70
23124;DHT22;11731;48.592;8.858;2022-08-06T08:03:46;21.80;92.50
23124;DHT22;11731;48.592;8.858;2022-08-06T08:06:31;21.90;92.40
23124;DHT22;11731;48.592;8.858;2022-08-06T08:09:00;22.10;92.50
23124;DHT22;11731;48.592;8.858;2022-08-06T08:11:28;22.00;92.50
23124;DHT22;11731;48.592;8.858;2022-08-06T08:13:56;22.00;92.70
23124;DHT22;11731;48.592;8.858;2022-08-06T08:16:25;22.00;92.70
23124;DHT22;11731;48.592;8.858;2022-08-06T08:18:53;22.10;92.30
23124;DHT22;11731;48.592;8.858;2022-08-06T08:21:20;22.20;92.10
23124;DHT22;11731;48.592;8.858;2022-08-06T08:23:49;22.20;92.50
23124;DHT22;11731;48.592;8.858;2022-08-06T08:26:16;22.10;92.70
23124;DHT22;11731;48.592;8.858;2022-08-06T08:28:43;22.20;92.60
23124;DHT22;11731;48.592;8.858;2022-08-06T08:31:13;22.20;92.70
23124;DHT22;11731;48.592;8.858;2022-08-06T08:33:40;22.10;92.70
23124;DHT22;11731;48.592;8.858;2022-08-06T08:36:07;22.20;92.50
23124;DHT22;11731;48.592;8.858;2022-08-06T08:38:35;22.40;92.10
23124;DHT22;11731;48.592;8.858;2022-08-06T08:41:06;22.30;91.70
23124;DHT22;11731;48.592;8.858;2022-08-06T08:43:53;22.20;92.10
23124;DHT22;11731;48.592;8.858;2022-08-06T08:46:25;22.20;92.00
23124;DHT22;11731;48.592;8.858;2022-08-06T08:48:55;22.30;91.80
23124;DHT22;11731;48.592;8.858;2022-08-06T08:51:25;21.80;91.50
23124;DHT22;11731;48.592;8.858;2022-08-06T08:53:54;21.70;91.60
23124;DHT22;11731;48.592;8.858;2022-08-06T08:56:24;21.80;92.10
23124;DHT22;11731;48.592;8.858;2022-08-06T08:58:52;21.80;91.60
23124;DHT22;11731;48.592;8.858;2022-08-06T09:01:19;22.20;90.90
23124;DHT22;11731;48.592;8.858;2022-08-06T09:03:48;22.50;90.60
23124;DHT22;11731;48.592;8.858;2022-08-06T09:06:15;22.40;90.60
23124;DHT22;11731;48.592;8.858;2022-08-06T09:08:43;22.60;90.10
23124;DHT22;11731;48.592;8.858;2022-08-06T09:11:14;22.70;90.40
23124;DHT22;11731;48.592;8.858;2022-08-06T09:13:41;22.70;89.70
23124;DHT22;11731;48.592;8.858;2022-08-06T09:16:08;22.30;90.50
23124;DHT22;11731;48.592;8.858;2022-08-06T09:18:35;22.20;89.70
23124;DHT22;11731;48.592;8.858;2022-08-06T09:21:06;22.50;90.00
23124;DHT22;11731;48.592;8.858;2022-08-06T09:23:36;22.80;89.20
23124;DHT22;11731;48.592;8.858;2022-08-06T09:26:04;22.90;88.40
23124;DHT22;11731;48.592;8.858;2022-08-06T09:28:34;23.00;87.10
23124;DHT22;11731;48.592;8.858;2022-08-06T09:31:06;23.20;88.20
23124;DHT22;11731;48.592;8.858;2022-08-06T09:33:35;23.20;88.50
23124;DHT22;11731;48.592;8.858;2022-08-06T09:36:06;23.00;88.10
23124;DHT22;11731;48.592;8.858;2022-08-06T09:38:45;22.70;89.70
23124;DHT22;11731;48.592;8.858;2022-08-06T09:41:14;22.90;90.10
23124;DHT22;11731;48.592;8.858;2022-08-06T09:44:25;23.00;89.60
23124;DHT22;11731;48.592;8.858;2022-08-06T09:46:52;23.30;89.20
23124;DHT22;11731;48.592;8.858;2022-08-06T09:49:21;23.00;88.20
23124;DHT22;11731;48.592;8.858;2022-08-06T09:52:10;23.20;88.40
23124;DHT22;11731;48.592;8.858;2022-08-06T09:54:38;23.10;88.60
23124;DHT22;11731;48.592;8.858;2022-08-06T09:57:05;23.00;90.10
23124;DHT22;11731;48.592;8.858;2022-08-06T09:59:41;23.30;89.00
23124;DHT22;11731;48.592;8.858;2022-08-06T10:05:59;23.40;87.50
23124;DHT22;11731;48.592;8.858;2022-08-06T10:08:31;23.50;86.60
23124;DHT22;11731;48.592;8.858;2022-08-06T10:10:58;24.00;88.00
23124;DHT22;11731;48.592;8.858;2022-08-06T10:13:29;24.10;84.90
23124;DHT22;11731;48.592;8.858;2022-08-06T10:15:57;24.20;86.70
23124;DHT22;11731;48.592;8.858;2022-08-06T10:18:46;24.00;87.10
23124;DHT22;11731;48.592;8.858;2022-08-06T10:21:15;23.70;87.00
23124;DHT22;11731;48.592;8.858;2022-08-06T10:23:46;23.70;86.80
23124;DHT22;11731;48.592;8.858;2022-08-06T10:26:17;24.00;86.60
23124;DHT22;11731;48.592;8.858;2022-08-06T10:28:47;24.60;85.00
23124;DHT22;11731;48.592;8.858;2022-08-06T10:34:09;24.00;83.80
23124;DHT22;11731;48.592;8.858;2022-08-06T10:36:39;23.90;86.10
23124;DHT22;11731;48.592;8.858;2022-08-06T10:39:07;24.10;86.20
23124;DHT22;11731;48.592;8.858;2022-08-06T10:41:35;24.10;86.20
23124;DHT22;11731;48.592;8.858;2022-08-06T10:44:06;24.10;85.50
23124;DHT22;11731;48.592;8.858;2022-08-06T10:46:34;24.10;86.30
23124;DHT22;11731;48.592;8.858;2022-08-06T10:49:02;23.80;86.10
23124;DHT22;11731;48.592;8.858;2022-08-06T10:51:29;23.90;86.40
23124;DHT22;11731;48.592;8.858;2022-08-06T10:53:57;24.00;86.50
23124;DHT22;11731;48.592;8.858;2022-08-06T10:56:25;24.50;86.00
23124;DHT22;11731;48.592;8.858;2022-08-06T10:58:53;24.70;85.00
23124;DHT22;11731;48.592;8.858;2022-08-06T11:01:27;24.90;84.20
23124;DHT22;11731;48.592;8.858;2022-08-06T11:04:32;24.60;84.90
23124;DHT22;11731;48.592;8.858;2022-08-06T11:07:11;24.60;84.40
23124;DHT22;11731;48.592;8.858;2022-08-06T11:09:57;24.60;84.00
23124;DHT22;11731;48.592;8.858;2022-08-06T11:12:46;24.40;83.90
23124;DHT22;11731;48.592;8.858;2022-08-06T11:15:15;24.30;83.10
23124;DHT22;11731;48.592;8.858;2022-08-06T11:17:44;23.90;84.80
23124;DHT22;11731;48.592;8.858;2022-08-06T11:20:36;23.90;84.60
23124;DHT22;11731;48.592;8.858;2022-08-06T11:23:27;23.90;85.10
23124;DHT22;11731;48.592;8.858;2022-08-06T11:25:55;24.10;84.80
23124;DHT22;11731;48.592;8.858;2022-08-06T11:31:38;24.00;83.80
23124;DHT22;11731;48.592;8.858;2022-08-06T11:34:07;24.60;83.30
23124;DHT22;11731;48.592;8.858;2022-08-06T11:36:47;24.70;83.30
23124;DHT22;11731;48.592;8.858;2022-08-06T11:39:15;24.80;82.70
23124;DHT22;11731;48.592;8.858;2022-08-06T11:41:58;25.00;81.20
23124;DHT22;11731;48.592;8.858;2022-08-06T11:44:28;24.90;81.20
23124;DHT22;11731;48.592;8.858;2022-08-06T11:47:08;24.70;82.00
23124;DHT22;11731;48.592;8.858;2022-08-06T11:49:38;24.80;81.40
23124;DHT22;11731;48.592;8.858;2022-08-06T11:52:06;25.00;81.10
23124;DHT22;11731;48.592;8.858;2022-08-06T11:54:35;25.30;80.00
23124;DHT22;11731;48.592;8.858;2022-08-06T11:57:22;25.70;77.90
23124;DHT22;11731;48.592;8.858;2022-08-06T12:00:10;25.70;77.40
23124;DHT22;11731;48.592;8.858;2022-08-06T12:02:58;25.80;79.60
23124;DHT22;11731;48.592;8.858;2022-08-06T12:05:36;25.70;80.30
23124;DHT22;11731;48.592;8.858;2022-08-06T12:08:21;25.20;82.10
23124;DHT22;11731;48.592;8.858;2022-08-06T12:11:23;24.90;82.60
23124;DHT22;11731;48.592;8.858;2022-08-06T12:13:51;24.90;82.40
23124;DHT22;11731;48.592;8.858;2022-08-06T12:16:33;24.90;82.40
23124;DHT22;11731;48.592;8.858;2022-08-06T12:19:03;25.10;80.90
23124;DHT22;11731;48.592;8.858;2022-08-06T12:21:31;25.00;80.10
23124;DHT22;11731;48.592;8.858;2022-08-06T12:23:59;24.90;81.00
23124;DHT22;11731;48.592;8.858;2022-08-06T12:26:30;24.70;79.80
23124;DHT22;11731;48.592;8.858;2022-08-06T12:29:01;24.70;79.80
23124;DHT22;11731;48.592;8.858;2022-08-06T12:31:39;24.50;80.60
23124;DHT22;11731;48.592;8.858;2022-08-06T12:34:07;24.70;80.20
23124;DHT22;11731;48.592;8.858;2022-08-06T12:36:35;25.00;79.50
23124;DHT22;11731;48.592;8.858;2022-08-06T12:39:05;24.80;80.90
23124;DHT22;11731;48.592;8.858;2022-08-06T12:41:34;24.70;81.30
23124;DHT22;11731;48.592;8.858;2022-08-06T12:44:01;25.00;80.60
23124;DHT22;11731;48.592;8.858;2022-08-06T12:46:28;25.00;80.80
23124;DHT22;11731;48.592;8.858;2022-08-06T12:48:55;25.00;80.10
23124;DHT22;11731;48.592;8.858;2022-08-06T12:51:24;25.30;80.40
23124;DHT22;11731;48.592;8.858;2022-08-06T12:54:58;25.60;79.60
23124;DHT22;11731;48.592;8.858;2022-08-06T12:56:57;25.50;80.10
23124;DHT22;11731;48.592;8.858;2022-08-06T12:59:26;25.40;79.00
23124;DHT22;11731;48.592;8.858;2022-08-06T13:01:53;25.40;76.80
23124;DHT22;11731;48.592;8.858;2022-08-06T13:04:24;25.60;78.20
23124;DHT22;11731;48.592;8.858;2022-08-06T13:06:54;25.70;78.00
23124;DHT22;11731;48.592;8.858;2022-08-06T13:09:27;26.10;77.30
23124;DHT22;11731;48.592;8.858;2022-08-06T13:11:55;25.90;77.80
23124;DHT22;11731;48.592;8.858;2022-08-06T13:14:22;26.10;78.20
23124;DHT22;11731;48.592;8.858;2022-08-06T13:17:10;26.20;79.00
23124;DHT22;11731;48.592;8.858;2022-08-06T13:19:50;26.00;78.10
23124;DHT22;11731;48.592;8.858;2022-08-06T13:22:18;26.50;78.10
23124;DHT22;11731;48.592;8.858;2022-08-06T13:24:45;26.40;78.00
23124;DHT22;11731;48.592;8.858;2022-08-06T13:27:12;26.50;76.70
23124;DHT22;11731;48.592;8.858;2022-08-06T13:30:00;26.50;76.70
23124;DHT22;11731;48.592;8.858;2022-08-06T13:32:28;25.80;79.00
23124;DHT22;11731;48.592;8.858;2022-08-06T13:35:08;25.80;79.40
23124;DHT22;11731;48.592;8.858;2022-08-06T13:37:47;26.00;79.00
23124;DHT22;11731;48.592;8.858;2022-08-06T13:40:14;26.10;78.30
23124;DHT22;11731;48.592;8.858;2022-08-06T13:42:49;26.20;78.90
23124;DHT22;11731;48.592;8.858;2022-08-06T13:45:21;26.40;77.70
23124;DHT22;11731;48.592;8.858;2022-08-06T13:47:49;26.50;78.20
23124;DHT22;11731;48.592;8.858;2022-08-06T13:50:18;26.80;76.10
23124;DHT22;11731;48.592;8.858;2022-08-06T13:52:46;27.00;75.60
23124;DHT22;11731;48.592;8.858;2022-08-06T13:55:22;27.00;77.10
23124;DHT22;11731;48.592;8.858;2022-08-06T13:57:49;26.70;75.20
23124;DHT22;11731;48.592;8.858;2022-08-06T14:00:16;26.70;76.20
23124;DHT22;11731;48.592;8.858;2022-08-06T14:02:43;26.60;77.10
23124;DHT22;11731;48.592;8.858;2022-08-06T14:05:10;26.60;76.30
23124;DHT22;11731;48.592;8.858;2022-08-06T14:07:38;26.90;76.90
23124;DHT22;11731;48.592;8.858;2022-08-06T14:10:07;27.10;76.40
23124;DHT22;11731;48.592;8.858;2022-08-06T14:12:34;27.00;76.50
23124;DHT22;11731;48.592;8.858;2022-08-06T14:15:02;27.10;75.80
23124;DHT22;11731;48.592;8.858;2022-08-06T14:17:29;27.30;76.00
23124;DHT22;11731;48.592;8.858;2022-08-06T14:19:56;27.20;75.10
23124;DHT22;11731;48.592;8.858;2022-08-06T14:23:04;26.50;75.70
23124;DHT22;11731;48.592;8.858;2022-08-06T14:25:32;26.30;77.70
23124;DHT22;11731;48.592;8.858;2022-08-06T14:28:00;26.50;75.60
23124;DHT22;11731;48.592;8.858;2022-08-06T14:30:27;26.50;76.80
23124;DHT22;11731;48.592;8.858;2022-08-06T14:32:54;26.70;75.50
23124;DHT22;11731;48.592;8.858;2022-08-06T14:35:21;27.00;74.90
23124;DHT22;11731;48.592;8.858;2022-08-06T14:37:51;27.20;74.60
23124;DHT22;11731;48.592;8.858;2022-08-06T14:40:39;27.50;74.50
23124;DHT22;11731;48.592;8.858;2022-08-06T14:43:24;27.80;73.50
23124;DHT22;11731;48.592;8.858;2022-08-06T14:46:08;27.80;74.30
23124;DHT22;11731;48.592;8.858;2022-08-06T14:48:35;27.60;75.20
23124;DHT22;11731;48.592;8.858;2022-08-06T14:51:03;27.60;72.50
23124;DHT22;11731;48.592;8.858;2022-08-06T14:53:30;27.20;71.80
23124;DHT22;11731;48.592;8.858;2022-08-06T14:56:02;26.90;74.60
23124;DHT22;11731;48.592;8.858;2022-08-06T14:58:42;27.00;73.80
23124;DHT22;11731;48.592;8.858;2022-08-06T15:01:10;27.10;74.90
23124;DHT22;11731;48.592;8.858;2022-08-06T15:03:37;27.40;74.20
23124;DHT22;11731;48.592;8.858;2022-08-06T15:06:04;27.90;74.00
23124;DHT22;11731;48.592;8.858;2022-08-06T15:08:33;28.20;71.90
23124;DHT22;11731;48.592;8.858;2022-08-06T15:11:02;28.30;71.50
23124;DHT22;11731;48.592;8.858;2022-08-06T15:13:29;28.00;73.70
23124;DHT22;11731;48.592;8.858;2022-08-06T15:15:55;27.70;75.10
23124;DHT22;11731;48.592;8.858;2022-08-06T15:18:22;27.70;73.50
23124;DHT22;11731;48.592;8.858;2022-08-06T15:20:49;27.90;73.60
23124;DHT22;11731;48.592;8.858;2022-08-06T15:23:16;27.60;73.50
23124;DHT22;11731;48.592;8.858;2022-08-06T15:25:45;27.40;74.10
23124;DHT22;11731;48.592;8.858;2022-08-06T15:28:24;27.40;74.70
23124;DHT22;11731;48.592;8.858;2022-08-06T15:31:07;27.70;74.00
23124;DHT22;11731;48.592;8.858;2022-08-06T15:34:28;27.90;74.70
23124;DHT22;11731;48.592;8.858;2022-08-06T15:36:45;28.00;74.20
23124;DHT22;11731;48.592;8.858;2022-08-06T15:39:12;28.00;74.00
23124;DHT22;11731;48.592;8.858;2022-08-06T15:41:39;27.90;74.70
23124;DHT22;11731;48.592;8.858;2022-08-06T15:44:40;27.80;74.30
23124;DHT22;11731;48.592;8.858;2022-08-06T15:47:09;28.10;74.00
23124;DHT22;11731;48.592;8.858;2022-08-06T15:49:37;28.30;73.10
23124;DHT22;11731;48.592;8.858;2022-08-06T15:52:04;28.10;73.40
23124;DHT22;11731;48.592;8.858;2022-08-06T16:00:59;28.70;71.80
23124;DHT22;11731;48.592;8.858;2022-08-06T16:03:32;29.20;71.40
23124;DHT22;11731;48.592;8.858;2022-08-06T16:05:59;29.20;70.00
23124;DHT22;11731;48.592;8.858;2022-08-06T16:08:26;29.10;70.90
23124;DHT22;11731;48.592;8.858;2022-08-06T16:10:53;29.20;71.20
23124;DHT22;11731;48.592;8.858;2022-08-06T16:14:46;29.00;71.10
23124;DHT22;11731;48.592;8.858;2022-08-06T16:16:44;29.40;69.90
23124;DHT22;11731;48.592;8.858;2022-08-06T16:19:12;29.50;69.90
23124;DHT22;11731;48.592;8.858;2022-08-06T16:29:11;28.80;71.40
23124;DHT22;11731;48.592;8.858;2022-08-06T16:38:37;29.00;70.10
23124;DHT22;11731;48.592;8.858;2022-08-06T16:41:07;29.20;69.60
23124;DHT22;11731;48.592;8.858;2022-08-06T16:43:36;29.00;70.20
23124;DHT22;11731;48.592;8.858;2022-08-06T16:46:06;29.00;69.80
23124;DHT22;11731;48.592;8.858;2022-08-06T16:48:33;29.10;69.40
23124;DHT22;11731;48.592;8.858;2022-08-06T16:51:05;29.10;69.50
23124;DHT22;11731;48.592;8.858;2022-08-06T16:53:32;29.20;70.40
23124;DHT22;11731;48.592;8.858;2022-08-06T16:56:09;29.20;70.50
23124;DHT22;11731;48.592;8.858;2022-08-06T16:58:53;29.40;69.00
23124;DHT22;11731;48.592;8.858;2022-08-06T17:01:20;29.80;69.00
23124;DHT22;11731;48.592;8.858;2022-08-06T17:03:47;30.00;67.90
23124;DHT22;11731;48.592;8.858;2022-08-06T17:06:14;30.30;67.70
23124;DHT22;11731;48.592;8.858;2022-08-06T17:08:41;30.20;67.00
23124;DHT22;11731;48.592;8.858;2022-08-06T17:11:10;29.60;67.90
23124;DHT22;11731;48.592;8.858;2022-08-06T17:13:37;29.40;68.40
23124;DHT22;11731;48.592;8.858;2022-08-06T17:16:04;29.60;69.30
23124;DHT22;11731;48.592;8.858;2022-08-06T17:18:33;29.80;68.30
23124;DHT22;11731;48.592;8.858;2022-08-06T17:21:03;29.90;67.70
23124;DHT22;11731;48.592;8.858;2022-08-06T17:23:38;30.20;67.80
23124;DHT22;11731;48.592;8.858;2022-08-06T17:29:02;30.40;66.70
23124;DHT22;11731;48.592;8.858;2022-08-06T17:34:31;31.00;65.40
23124;DHT22;11731;48.592;8.858;2022-08-06T17:36:58;31.10;64.40
23124;DHT22;11731;48.592;8.858;2022-08-06T17:39:28;31.40;64.90
23124;DHT22;11731;48.592;8.858;2022-08-06T17:41:55;32.00;63.80
23124;DHT22;11731;48.592;8.858;2022-08-06T17:44:26;31.60;63.70
23124;DHT22;11731;48.592;8.858;2022-08-06T17:46:59;31.30;64.50
23124;DHT22;11731;48.592;8.858;2022-08-06T17:49:26;32.00;62.40
23124;DHT22;11731;48.592;8.858;2022-08-06T17:55:04;33.50;61.30
23124;DHT22;11731;48.592;8.858;2022-08-06T17:57:31;33.90;60.10
23124;DHT22;11731;48.592;8.858;2022-08-06T17:59:59;34.30;59.20
23124;DHT22;11731;48.592;8.858;2022-08-06T18:02:43;34.10;59.30
23124;DHT22;11731;48.592;8.858;2022-08-06T18:05:10;33.60;60.20
23124;DHT22;11731;48.592;8.858;2022-08-06T18:07:37;33.90;59.50
23124;DHT22;11731;48.592;8.858;2022-08-06T18:10:06;34.20;59.90
23124;DHT22;11731;48.592;8.858;2022-08-06T18:12:49;33.80;60.10
23124;DHT22;11731;48.592;8.858;2022-08-06T18:15:21;34.00;59.90
23124;DHT22;11731;48.592;8.858;2022-08-06T18:17:49;33.70;60.00
23124;DHT22;11731;48.592;8.858;2022-08-06T18:20:16;33.10;61.40
23124;DHT22;11731;48.592;8.858;2022-08-06T18:22:44;32.50;62.50
23124;DHT22;11731;48.592;8.858;2022-08-06T18:25:13;32.40;62.90
23124;DHT22;11731;48.592;8.858;2022-08-06T18:27:41;32.20;62.60
23124;DHT22;11731;48.592;8.858;2022-08-06T18:30:09;31.90;63.20
23124;DHT22;11731;48.592;8.858;2022-08-06T18:32:38;31.90;63.10
23124;DHT22;11731;48.592;8.858;2022-08-06T18:35:06;31.80;63.40
23124;DHT22;11731;48.592;8.858;2022-08-06T18:37:32;31.50;64.30
23124;DHT22;11731;48.592;8.858;2022-08-06T18:39:59;31.20;64.40
23124;DHT22;11731;48.592;8.858;2022-08-06T18:42:26;30.80;64.70
23124;DHT22;11731;48.592;8.858;2022-08-06T18:44:53;30.20;66.30
23124;DHT22;11731;48.592;8.858;2022-08-06T18:47:20;29.90;66.90
23124;DHT22;11731;48.592;8.858;2022-08-06T18:49:48;29.70;67.30
23124;DHT22;11731;48.592;8.858;2022-08-06T18:52:15;29.10;63.10
23124;DHT22;11731;48.592;8.858;2022-08-06T18:54:43;28.30;64.50
23124;DHT22;11731;48.592;8.858;2022-08-06T18:57:14;28.10;64.20
23124;DHT22;11731;48.592;8.858;2022-08-06T18:59:50;27.80;63.30
23124;DHT22;11731;48.592;8.858;2022-08-06T19:02:22;27.40;62.90
23124;DHT22;11731;48.592;8.858;2022-08-06T19:04:59;27.30;63.30
23124;DHT22;11731;48.592;8.858;2022-08-06T19:07:55;27.00;62.70
23124;DHT22;11731;48.592;8.858;2022-08-06T19:10:27;26.50;63.30
23124;DHT22;11731;48.592;8.858;2022-08-06T19:12:58;26.20;62.90
23124;DHT22;11731;48.592;8.858;2022-08-06T19:15:28;26.50;62.50
23124;DHT22;11731;48.592;8.858;2022-08-06T19:17:56;26.10;61.90
23124;DHT22;11731;48.592;8.858;2022-08-06T19:20:25;25.90;63.50
23124;DHT22;11731;48.592;8.858;2022-08-06T19:22:52;25.70;61.60
23124;DHT22;11731;48.592;8.858;2022-08-06T19:25:19;25.60;62.40
23124;DHT22;11731;48.592;8.858;2022-08-06T19:27:51;25.30;63.60
23124;DHT22;11731;48.592;8.858;2022-08-06T19:30:18;25.00;63.90
23124;DHT22;11731;48.592;8.858;2022-08-06T19:32:46;25.00;62.90
23124;DHT22;11731;48.592;8.858;2022-08-06T19:35:13;24.70;63.30
23124;DHT22;11731;48.592;8.858;2022-08-06T19:37:42;24.30;64.40
23124;DHT22;11731;48.592;8.858;2022-08-06T19:40:34;23.90;64.70
23124;DHT22;11731;48.592;8.858;2022-08-06T19:43:26;23.90;64.70
23124;DHT22;11731;48.592;8.858;2022-08-06T19:45:55;23.50;64.70
23124;DHT22;11731;48.592;8.858;2022-08-06T19:48:22;23.50;63.20
23124;DHT22;11731;48.592;8.858;2022-08-06T19:50:49;23.40;64.70
23124;DHT22;11731;48.592;8.858;2022-08-06T19:53:18;23.60;64.90
23124;DHT22;11731;48.592;8.858;2022-08-06T19:55:45;23.70;65.30
23124;DHT22;11731;48.592;8.858;2022-08-06T19:58:15;23.90;64.80
23124;DHT22;11731;48.592;8.858;2022-08-06T20:00:43;23.90;63.50
23124;DHT22;11731;48.592;8.858;2022-08-06T20:03:12;23.80;63.80
23124;DHT22;11731;48.592;8.858;2022-08-06T20:05:40;23.60;63.90
23124;DHT22;11731;48.592;8.858;2022-08-06T20:08:07;23.70;63.80
23124;DHT22;11731;48.592;8.858;2022-08-06T20:10:36;23.70;64.40
23124;DHT22;11731;48.592;8.858;2022-08-06T20:13:03;23.60;63.10
23124;DHT22;11731;48.592;8.858;2022-08-06T20:15:31;23.40;64.00
23124;DHT22;11731;48.592;8.858;2022-08-06T20:18:01;23.40;63.40
23124;DHT22;11731;48.592;8.858;2022-08-06T20:20:28;23.40;64.20
23124;DHT22;11731;48.592;8.858;2022-08-06T20:22:55;22.80;64.50